Weather at Austin Straubel International Airport

Public forecast

Using degrees Fahrenheit for public forecast. Weather courtesy of forecast.io.

Current aviation weather report (METAR) for Austin Straubel International Airport

Report is more than 6 hours old.

2022/11/14 14:53 (retrieved 2 years ago)

KGRB 141453Z 00000KT 10SM CLR M02/M05 A3038 RMK AO2 SLP297 T10221050 53007

Aviation forecast (TAF) for Austin Straubel International Airport

Forecast is more than 12 hours old.

2023/02/22 20:24 Ammendment (retrieved 1 year ago)

TAF AMD KGRB 222022Z 2220/2318 04020G30KT 2SM -SN BR OVC016 TEMPO 2220/2223 1/2SM SN BLSN OVC008 FM222300 04028G37KT 1/2SM SN BLSN OVC009 WS020/07040KT FM230500 05021G32KT 2SM -SN BLSN OVC016 FM231200 05016G26KT 1/2SM SN BLSN OVC012 FM231700 03014G22KT 2SM -SN OVC020